Flight Track Log - Related Links

Times and Time Zones

All times are in EDT time to prevent confusion due to time zone crossing. See the BEL3738 flight status page for this flight to view local times or setup timezone preferences in your user account.

Time Position Orientation Groundspeed Altitude Reporting Facility
EDT Latitude Longitude Course Direction KTS MPH feet Rate Location/Type
Thu 11:02:00 AM 37.3109 -4.1844 21° North  Level Estimated
Thu 11:03:00 AM 37.4168 -4.1314 22° Northeast  Level Estimated
Thu 11:04:00 AM 37.5227 -4.0783 22° Northeast  Level Estimated
Thu 11:05:00 AM 37.6285 -4.0251 22° Northeast  Level Estimated
Thu 11:06:00 AM 37.7344 -3.9716 22° Northeast  Level Estimated
Thu 11:07:00 AM 37.8402 -3.9181 22° Northeast  Level Estimated
Thu 11:08:00 AM 37.9460 -3.8643 22° Northeast  Level Estimated
Thu 11:09:00 AM 38.0518 -3.8105 22° Northeast  Level Estimated
Thu 11:10:00 AM 38.1575 -3.7564 22° Northeast  Level Estimated
Thu 11:11:00 AM 38.2632 -3.7022 22° Northeast  Level Estimated
Thu 11:12:00 AM 38.3689 -3.6479 22° Northeast  Level Estimated
Thu 11:13:00 AM 38.4746 -3.5934 22° Northeast  Level Estimated
Thu 11:14:00 AM 38.5802 -3.5387 22° Northeast  Level Estimated
Thu 11:15:00 AM 38.6858 -3.4839 22° Northeast  Level Estimated
Thu 11:16:00 AM 38.7914 -3.4289 22° Northeast  Level Estimated
Thu 11:17:00 AM 38.8970 -3.3737 22° Northeast  Level Estimated
Thu 11:18:00 AM 39.0025 -3.3184 22° Northeast  Level Estimated
Thu 11:19:00 AM 39.1081 -3.2629 22° Northeast  Level Estimated
Thu 11:20:00 AM 39.2135 -3.2073 22° Northeast  Level Estimated
Thu 11:21:00 AM 39.3190 -3.1514 22° Northeast  Level Estimated
Thu 11:22:00 AM 39.4244 -3.0954 22° Northeast  Level Estimated
Thu 11:23:00 AM 39.5299 -3.0393 22° Northeast  Level Estimated
Thu 11:24:00 AM 39.6352 -2.9829 22° Northeast  Level Estimated
Thu 11:25:00 AM 39.7406 -2.9265 22° Northeast  Level Estimated
Thu 11:26:00 AM 39.8459 -2.8698 22° Northeast  Level Estimated
Thu 11:27:00 AM 39.9512 -2.8129 22° Northeast  Level Estimated
Thu 11:28:00 AM 40.0565 -2.7559 23° Northeast  Level Estimated
Thu 11:29:00 AM 40.1617 -2.6987 23° Northeast  Level Estimated
Thu 11:30:00 AM 40.2669 -2.6413 23° Northeast  Level Estimated
Thu 11:31:00 AM 40.3721 -2.5838 23° Northeast  Level Estimated
Thu 11:32:00 AM 40.4773 -2.5260 23° Northeast  Level Estimated
Thu 11:33:00 AM 40.5824 -2.4681 23° Northeast  Level Estimated
Thu 11:34:00 AM 40.6875 -2.4100 23° Northeast  Level Estimated
Thu 11:35:00 AM 40.7926 -2.3517 23° Northeast  Level Estimated
Thu 11:36:00 AM 40.8976 -2.2933 23° Northeast  Level Estimated
Thu 11:37:00 AM 41.0026 -2.2346 23° Northeast  Level Estimated
Thu 11:38:00 AM 41.1076 -2.1758 23° Northeast  Level Estimated
Thu 11:39:00 AM 41.2126 -2.1167 23° Northeast  Level Estimated
Thu 11:40:00 AM 41.3175 -2.0575 23° Northeast  Level Estimated
Thu 11:41:00 AM 41.4224 -1.9981 23° Northeast  Level Estimated
Thu 11:42:00 AM 41.5272 -1.9385 23° Northeast  Level Estimated
Thu 11:43:00 AM 41.6321 -1.8787 23° Northeast  Level Estimated
Thu 11:44:00 AM 41.7369 -1.8187 23° Northeast  Level Estimated
Thu 11:45:00 AM 41.8416 -1.7585 23° Northeast  Level Estimated
Thu 11:46:00 AM 41.9464 -1.6982 23° Northeast  Level Estimated
Thu 11:47:00 AM 42.0511 -1.6376 23° Northeast  Level Estimated
Thu 11:48:00 AM 42.1557 -1.5768 23° Northeast  Level Estimated
Thu 11:49:00 AM 42.2604 -1.5158 23° Northeast  Level Estimated
Thu 11:50:00 AM 42.3650 -1.4546 23° Northeast  Level Estimated
Thu 11:51:00 AM 42.4696 -1.3932 23° Northeast  Level Estimated
Thu 11:52:00 AM 42.5741 -1.3316 23° Northeast  Level Estimated
Thu 11:53:00 AM 42.6786 -1.2698 23° Northeast  Level Estimated
Thu 11:54:00 AM 42.7831 -1.2078 24° Northeast  Level Estimated
Thu 11:55:00 AM 42.8875 -1.1456 24° Northeast  Level Estimated
Thu 11:56:00 AM 42.9919 -1.0832 24° Northeast  Level Estimated
Thu 11:57:00 AM 43.0963 -1.0205 24° Northeast  Level Estimated
Thu 11:58:00 AM 43.2006 -0.9577 24° Northeast  Level Estimated
Thu 11:59:00 AM 43.3050 -0.8946 24° Northeast  Level Estimated
Thu 12:00:00 PM 43.4092 -0.8313 24° Northeast  Level Estimated
Thu 12:01:00 PM 43.5135 -0.7678 24° Northeast  Level Estimated
Thu 12:02:00 PM 43.6177 -0.7041 24° Northeast  Level Estimated
Thu 12:03:00 PM 43.7218 -0.6401 24° Northeast  Level Estimated
Thu 12:04:00 PM 43.8260 -0.5760 24° Northeast  Level Estimated
Thu 12:05:00 PM 43.9300 -0.5116 24° Northeast  Level Estimated
Thu 12:06:00 PM 44.0341 -0.4469 24° Northeast  Level Estimated
Thu 12:07:00 PM 44.1381 -0.3821 24° Northeast  Level Estimated
Thu 12:08:00 PM 44.2421 -0.3170 24° Northeast  Level Estimated
Thu 12:09:00 PM 44.3461 -0.2517 24° Northeast  Level Estimated
Thu 12:10:00 PM 44.4500 -0.1862 24° Northeast  Level Estimated
Thu 12:11:00 PM 44.5538 -0.1204 24° Northeast  Level Estimated
Thu 12:12:00 PM 44.6577 -0.0544 24° Northeast  Level Estimated
Thu 12:13:00 PM 44.7615 0.0119 24° Northeast  Level Estimated
Thu 12:14:00 PM 44.8652 0.0784 24° Northeast  Level Estimated
Thu 12:15:00 PM 44.9689 0.1451 24° Northeast  Level Estimated
Thu 12:16:00 PM 45.0726 0.2120 25° Northeast  Level Estimated
Thu 12:17:00 PM 45.1763 0.2792 25° Northeast  Level Estimated
Thu 12:18:00 PM 45.2799 0.3467 25° Northeast  Level Estimated
Thu 12:19:00 PM 45.3834 0.4144 25° Northeast  Level Estimated
Thu 12:20:00 PM 45.4869 0.4823 25° Northeast  Level Estimated
Thu 12:21:00 PM 45.5904 0.5505 25° Northeast  Level Estimated
Thu 12:22:00 PM 45.6939 0.6190 25° Northeast  Level Estimated
Thu 12:23:00 PM 45.7973 0.6877 25° Northeast  Level Estimated
Thu 12:24:00 PM 45.9006 0.7567 25° Northeast  Level Estimated
Thu 12:25:00 PM 46.0039 0.8259 25° Northeast  Level Estimated
Thu 12:26:00 PM 46.1072 0.8954 25° Northeast  Level Estimated
Thu 12:27:00 PM 46.2104 0.9651 25° Northeast  Level Estimated
Thu 12:28:00 PM 46.3136 1.0351 25° Northeast  Level Estimated
Thu 12:29:00 PM 46.4168 1.1054 25° Northeast  Level Estimated
Thu 12:30:00 PM 46.5199 1.1759 25° Northeast  Level Estimated
Thu 12:31:00 PM 46.6229 1.2467 25° Northeast  Level Estimated
Thu 12:32:00 PM 46.7259 1.3178 25° Northeast  Level Estimated
Thu 12:33:00 PM 46.8289 1.3891 25° Northeast  Level Estimated
Thu 12:34:00 PM 46.9318 1.4607 25° Northeast  Level Estimated
Thu 12:35:00 PM 47.0347 1.5326 25° Northeast  Level Estimated
Thu 12:36:00 PM 47.1376 1.6048 26° Northeast  Level Estimated
Thu 12:37:00 PM 47.2403 1.6772 26° Northeast  Level Estimated
Thu 12:38:00 PM 47.3431 1.7500 26° Northeast  Level Estimated
Thu 12:39:00 PM 47.4458 1.8230 26° Northeast  Level Estimated
Thu 12:40:00 PM 47.5484 1.8963 26° Northeast  Level Estimated
Thu 12:41:00 PM 47.6511 1.9698 26° Northeast  Level Estimated
Thu 12:42:00 PM 47.7536 2.0437 26° Northeast  Level Estimated
Thu 12:43:00 PM 47.8561 2.1179 26° Northeast  Level Estimated
Thu 12:44:00 PM 47.9586 2.1923 26° Northeast  Level Estimated
Thu 12:45:00 PM 48.0610 2.2671 26° Northeast  Level Estimated
Thu 12:46:00 PM 48.1634 2.3421 26° Northeast  Level Estimated
Thu 12:47:00 PM 48.2657 2.4175 26° Northeast  Level Estimated
Thu 12:48:00 PM 48.3680 2.4932 26° Northeast  Level Estimated
Thu 12:49:00 PM 48.4702 2.5691 26° Northeast  Level Estimated
Thu 12:50:00 PM 48.5723 2.6454 26° Northeast  Level Estimated
Thu 12:51:00 PM 48.6745 2.7220 26° Northeast  Level Estimated
Thu 12:52:00 PM 48.7765 2.7989 26° Northeast  Level Estimated
Thu 12:53:00 PM 48.8785 2.8761 26° Northeast  Level Estimated
Thu 12:54:00 PM 48.9805 2.9536 27° Northeast  Level Estimated
Thu 12:55:00 PM 49.0824 3.0314 27° Northeast  Level Estimated
Thu 12:56:00 PM 49.1843 3.1096 27° Northeast  Level Estimated
Thu 12:57:00 PM 49.2861 3.1880 27° Northeast  Level Estimated
Thu 12:58:00 PM 49.3878 3.2668 27° Northeast  Level Estimated
Thu 12:59:00 PM 49.4895 3.3460 27° Northeast  Level Estimated
Thu 01:00:00 PM 49.5912 3.4254 27° Northeast  Level Estimated
Thu 01:01:00 PM 49.6927 3.5052 27° Northeast  Level Estimated
Thu 01:02:00 PM 49.7943 3.5853 27° Northeast  Level Estimated
Thu 01:03:00 PM 49.8958 3.6658 27° Northeast  Level Estimated
Thu 01:04:00 PM 49.9972 3.7466 27° Northeast  Level Estimated
Thu 01:05:00 PM 50.0985 3.8277 27° Northeast  Level Estimated
Thu 01:06:00 PM 50.1999 3.9092 27° Northeast  Level Estimated
Thu 01:07:00 PM 50.3011 3.9911 27° Northeast  Level Estimated
Thu 01:08:00 PM 50.4023 4.0732 27° Northeast  Level Estimated
Thu 01:09:00 PM 50.5034 4.1558 27° Northeast  Level Estimated
Thu 01:10:00 PM 50.6045 4.2386 27° Northeast  Level Estimated
Thu 01:11:00 PM 50.7055 4.3219 28° Northeast  Level Estimated
Thu 01:12:00 PM 50.8065 4.4055 28° Northeast  Level Estimated
Thu 01:13:00 PM 50.9014 4.4844 28° Northeast  Level Estimated
Thu 01:14:00 PM 50.9014 4.4844 112° Southeast  Level Estimated
Thu 01:15:00 PM 50.9014 4.4844 112° Southeast  Level Estimated
Thu 01:16:00 PM 50.9014 4.4844 112° Southeast  Level Estimated
Thu 01:17:00 PM 50.9014 4.4844 112° Southeast  Level Estimated
Thu 01:18:00 PM 50.9014 4.4844 112° Southeast  Level Estimated
Thu 01:19:00 PM 50.9014 4.4844 112° Southeast  Level Estimated
Thu 01:20:00 PM 50.9014 4.4844 112° Southeast  Level Estimated
Thu 01:21:00 PM 50.9014 4.4844 112° Southeast  Level Estimated
Thu 01:22:00 PM 50.9014 4.4844 112° Southeast  Level Estimated
Thu 01:23:00 PM 50.9014 4.4844 112° Southeast  Level Estimated
Thu 01:24:00 PM 50.9014 4.4844 112° Southeast  Level Estimated
Thu 01:25:00 PM 50.9014 4.4844 112° Southeast  Level Estimated

Login

Don't have an account? Register now (free) for customized features, flight alerts, and more!